createdAt,value
2018-01-13T00:00:25.259Z,34.57
2018-01-13T00:02:59.161Z,32.80
2018-01-13T00:05:30.462Z,35.10
2018-01-13T00:08:02.140Z,32.77
2018-01-13T00:10:34.743Z,38.10
2018-01-13T00:13:08.133Z,33.10
2018-01-13T00:15:39.170Z,34.30
2018-01-13T00:18:11.545Z,33.70
2018-01-13T00:20:42.604Z,36.60
2018-01-13T00:23:13.798Z,35.93
2018-01-13T00:25:46.000Z,36.37
2018-01-13T00:28:17.033Z,34.60
2018-01-13T00:30:50.053Z,37.60
2018-01-13T00:33:21.373Z,33.17
2018-01-13T00:35:54.944Z,32.80
2018-01-13T00:38:26.523Z,33.50
2018-01-13T00:40:58.944Z,35.17
2018-01-13T00:43:30.527Z,34.17
2018-01-13T00:46:02.472Z,31.97
2018-01-13T00:48:33.450Z,33.87
2018-01-13T00:51:04.586Z,31.63
2018-01-13T00:53:35.680Z,32.10
2018-01-13T00:56:07.208Z,32.43
2018-01-13T00:58:38.838Z,33.10
2018-01-13T01:01:24.087Z,35.50
2018-01-13T01:04:10.875Z,33.80
2018-01-13T01:06:49.790Z,34.33
2018-01-13T01:09:21.633Z,38.70
2018-01-13T01:12:06.274Z,33.00
2018-01-13T01:20:27.921Z,32.13
2018-01-13T01:23:35.066Z,34.60
2018-01-13T01:26:16.669Z,34.53
2018-01-13T01:29:10.295Z,32.80
2018-01-13T01:34:45.856Z,32.30
2018-01-13T01:37:18.452Z,35.20
2018-01-13T01:39:50.396Z,34.63
2018-01-13T01:42:22.215Z,33.70
2018-01-13T01:44:56.010Z,31.70
2018-01-13T01:47:27.585Z,32.67
2018-01-13T01:49:59.837Z,32.10
2018-01-13T01:52:32.006Z,34.83
2018-01-13T01:55:03.978Z,33.20
2018-01-13T01:57:35.854Z,35.37
2018-01-13T02:00:07.661Z,31.87
2018-01-13T02:02:38.988Z,34.63
2018-01-13T02:05:10.791Z,36.97
2018-01-13T02:07:42.489Z,33.00
2018-01-13T02:10:15.395Z,33.00
2018-01-13T02:12:47.761Z,31.87
2018-01-13T02:15:19.887Z,32.23
2018-01-13T02:17:53.902Z,34.10
2018-01-13T02:20:26.681Z,35.27
2018-01-13T02:22:59.472Z,33.33
2018-01-13T02:25:32.491Z,33.40
2018-01-13T02:28:07.139Z,33.83
2018-01-13T02:30:40.833Z,33.90
2018-01-13T02:33:12.668Z,31.90
2018-01-13T02:35:44.932Z,33.17
2018-01-13T02:38:17.416Z,35.40
2018-01-13T02:40:49.135Z,32.10
2018-01-13T02:43:20.812Z,34.80
2018-01-13T02:45:55.561Z,32.67
2018-01-13T02:48:27.382Z,33.37
2018-01-13T02:51:00.476Z,32.77
2018-01-13T02:53:32.870Z,33.60
2018-01-13T02:56:05.666Z,32.13
2018-01-13T02:58:37.885Z,33.78
2018-01-13T03:01:09.936Z,33.38
2018-01-13T03:03:42.971Z,37.10
2018-01-13T03:06:16.704Z,35.07
2018-01-13T03:08:52.777Z,37.28
2018-01-13T03:11:25.043Z,33.70
2018-01-13T03:13:59.593Z,35.60
2018-01-13T03:16:32.160Z,35.57
2018-01-13T03:19:04.178Z,33.85
2018-01-13T03:21:36.393Z,36.63
2018-01-13T03:24:07.533Z,33.95
2018-01-13T03:26:39.809Z,33.53
2018-01-13T03:29:11.688Z,34.07
2018-01-13T03:31:44.929Z,34.22
2018-01-13T03:34:18.907Z,33.28
2018-01-13T03:36:53.803Z,33.17
2018-01-13T03:39:26.320Z,35.97
2018-01-13T03:41:58.379Z,33.23
2018-01-13T03:44:30.027Z,35.97
2018-01-13T03:47:01.466Z,36.33
2018-01-13T03:49:32.885Z,34.73
2018-01-13T03:52:04.868Z,35.42
2018-01-13T03:54:37.589Z,35.43
2018-01-13T03:57:09.664Z,34.33
2018-01-13T03:59:41.506Z,35.15
2018-01-13T04:02:14.771Z,34.37
2018-01-13T04:04:48.149Z,33.90
2018-01-13T04:07:20.124Z,37.10
2018-01-13T04:09:53.447Z,34.13
2018-01-13T04:12:27.467Z,33.20
2018-01-13T04:14:59.818Z,34.37
2018-01-13T04:17:31.459Z,35.33
2018-01-13T04:20:03.611Z,35.80
2018-01-13T04:22:35.476Z,34.90
2018-01-13T04:25:07.513Z,33.85
2018-01-13T04:27:39.456Z,33.08
2018-01-13T04:30:12.438Z,34.50
2018-01-13T04:32:43.966Z,32.40
2018-01-13T04:35:16.648Z,31.90
2018-01-13T04:37:48.783Z,32.17
2018-01-13T04:40:20.564Z,33.37
2018-01-13T04:42:56.287Z,32.20
2018-01-13T04:45:27.964Z,32.37
2018-01-13T04:47:59.680Z,30.73
2018-01-13T04:50:31.434Z,32.30
2018-01-13T04:53:04.790Z,34.10
2018-01-13T04:55:37.352Z,32.20
2018-01-13T04:58:10.222Z,28.87
2018-01-13T05:00:41.909Z,31.40
2018-01-13T05:03:13.760Z,31.00
2018-01-13T05:05:45.886Z,33.55
2018-01-13T05:08:17.265Z,32.40
2018-01-13T05:10:49.925Z,31.80
2018-01-13T05:13:22.761Z,30.03
2018-01-13T05:15:55.968Z,31.70
2018-01-13T05:18:28.850Z,29.45
2018-01-13T05:21:00.723Z,29.83
2018-01-13T05:23:32.294Z,29.00
2018-01-13T05:26:04.832Z,30.67
2018-01-13T05:28:36.547Z,28.48
2018-01-13T05:31:08.207Z,27.20
2018-01-13T05:33:39.944Z,26.73
2018-01-13T05:36:12.666Z,28.23
2018-01-13T05:38:44.949Z,26.47
2018-01-13T05:41:17.678Z,26.30
2018-01-13T05:43:48.711Z,26.60
2018-01-13T05:46:20.388Z,26.13
2018-01-13T05:48:54.180Z,26.43
2018-01-13T05:51:26.208Z,27.23
2018-01-13T05:54:01.578Z,27.53
2018-01-13T05:56:33.056Z,26.70
2018-01-13T05:59:04.988Z,27.47
2018-01-13T06:01:37.186Z,27.33
2018-01-13T06:04:09.501Z,26.58
2018-01-13T06:06:42.982Z,27.83
2018-01-13T06:09:17.837Z,29.00
2018-01-13T06:11:50.440Z,29.70
2018-01-13T06:14:22.919Z,28.98
2018-01-13T06:16:55.673Z,30.60
2018-01-13T06:19:27.598Z,31.20
2018-01-13T06:21:59.779Z,31.60
2018-01-13T06:24:31.633Z,33.92
2018-01-13T06:27:04.717Z,30.73
2018-01-13T06:29:36.340Z,31.55
2018-01-13T06:32:08.338Z,33.03
2018-01-13T06:34:40.160Z,30.95
2018-01-13T06:37:13.170Z,31.40
2018-01-13T06:39:45.571Z,33.17
2018-01-13T06:42:18.364Z,34.50
2018-01-13T06:44:50.124Z,33.40
2018-01-13T06:47:23.236Z,33.97
2018-01-13T06:49:56.488Z,33.88
2018-01-13T06:52:28.869Z,34.40
2018-01-13T06:55:00.916Z,34.70
2018-01-13T06:57:34.095Z,34.37
2018-01-13T07:00:06.778Z,33.58
2018-01-13T07:02:38.650Z,31.70
2018-01-13T07:05:10.099Z,31.62
2018-01-13T07:07:43.704Z,32.33
2018-01-13T07:10:15.892Z,33.70
2018-01-13T07:12:47.555Z,33.30
2018-01-13T07:15:19.606Z,29.73
2018-01-13T07:17:52.763Z,31.47
2018-01-13T07:20:25.420Z,31.80
2018-01-13T07:22:59.492Z,30.53
2018-01-13T07:25:31.119Z,30.93
2018-01-13T07:28:03.110Z,31.10
2018-01-13T07:30:35.138Z,30.90
2018-01-13T07:33:06.468Z,30.70
2018-01-13T07:35:39.106Z,30.30
2018-01-13T07:38:11.238Z,31.37
2018-01-13T07:40:43.343Z,32.90
2018-01-13T07:43:15.862Z,30.73
2018-01-13T07:45:48.721Z,33.03
2018-01-13T07:48:21.387Z,32.63
2018-01-13T07:50:54.644Z,31.60
2018-01-13T07:53:27.958Z,31.60
2018-01-13T07:56:00.163Z,32.07
2018-01-13T07:58:31.869Z,30.63
2018-01-13T08:01:04.974Z,32.73
2018-01-13T08:03:37.055Z,29.90
2018-01-13T08:06:08.822Z,33.10
2018-01-13T08:08:40.787Z,38.50
2018-01-13T08:11:13.851Z,35.93
2018-01-13T08:13:47.747Z,33.03
2018-01-13T08:16:23.197Z,33.83
2018-01-13T08:18:57.752Z,32.43
2018-01-13T08:21:31.909Z,33.20
2018-01-13T08:24:06.370Z,31.60
2018-01-13T08:26:38.605Z,30.10
2018-01-13T08:29:10.142Z,32.73
2018-01-13T08:31:42.145Z,30.30
2018-01-13T08:34:15.359Z,32.23
2018-01-13T08:36:47.113Z,31.73
2018-01-13T08:39:22.972Z,30.97
2018-01-13T08:41:56.246Z,30.92
2018-01-13T08:44:29.264Z,32.50
2018-01-13T08:47:00.657Z,33.37
2018-01-13T08:49:33.024Z,33.13
2018-01-13T08:52:05.758Z,33.40
2018-01-13T08:54:37.055Z,34.47
2018-01-13T08:57:08.296Z,31.97
2018-01-13T08:59:40.583Z,35.37
2018-01-13T09:02:12.640Z,35.03
2018-01-13T09:04:44.810Z,33.72
2018-01-13T09:07:19.544Z,33.47
2018-01-13T09:09:55.658Z,34.80
2018-01-13T09:12:28.114Z,33.13
2018-01-13T09:14:59.609Z,34.90
2018-01-13T09:17:32.009Z,33.80
2018-01-13T09:20:04.252Z,34.47
2018-01-13T09:22:35.822Z,34.77
2018-01-13T09:25:08.535Z,33.23
2018-01-13T09:27:39.894Z,32.67
2018-01-13T09:30:11.555Z,33.57
2018-01-13T09:32:43.040Z,34.63
2018-01-13T09:35:15.516Z,31.73
2018-01-13T09:37:47.592Z,30.70
2018-01-13T09:40:24.089Z,31.60
2018-01-13T09:42:59.474Z,33.13
2018-01-13T09:45:32.476Z,35.43
2018-01-13T09:48:03.735Z,33.37
2018-01-13T09:50:35.181Z,33.80
2018-01-13T09:53:07.846Z,30.97
2018-01-13T09:55:39.155Z,32.97
2018-01-13T09:58:11.271Z,31.37
2018-01-13T10:00:42.868Z,31.20
2018-01-13T10:03:15.250Z,31.60
2018-01-13T10:05:46.827Z,33.60
2018-01-13T10:08:18.202Z,32.07
2018-01-13T10:10:53.278Z,33.60
2018-01-13T10:13:25.610Z,33.43
2018-01-13T10:16:01.918Z,32.10
2018-01-13T10:18:34.568Z,32.27
2018-01-13T10:21:06.652Z,33.70
2018-01-13T10:23:38.485Z,35.93
2018-01-13T10:26:10.407Z,30.47
2018-01-13T10:28:44.383Z,32.70
2018-01-13T10:31:16.095Z,32.57
2018-01-13T10:33:49.233Z,35.43
2018-01-13T10:36:22.684Z,31.97
2018-01-13T10:38:59.021Z,32.40
2018-01-13T10:41:30.248Z,32.27
2018-01-13T10:44:03.150Z,31.67
2018-01-13T10:46:35.048Z,32.53
2018-01-13T10:49:07.583Z,31.13
2018-01-13T10:51:39.718Z,29.47
2018-01-13T10:54:11.244Z,30.40
2018-01-13T10:56:43.020Z,31.43
2018-01-13T10:59:15.842Z,29.90
2018-01-13T11:01:47.348Z,30.50
2018-01-13T11:04:19.531Z,31.90
2018-01-13T11:06:50.861Z,29.40
2018-01-13T11:09:25.098Z,28.80
2018-01-13T11:11:58.260Z,27.93
2018-01-13T11:14:30.460Z,36.90
2018-01-13T11:17:04.610Z,32.43
2018-01-13T11:19:37.809Z,35.53
2018-01-13T11:22:09.627Z,39.27
2018-01-13T11:24:42.657Z,35.27
2018-01-13T11:27:14.964Z,36.73
2018-01-13T11:29:47.138Z,38.03
2018-01-13T11:32:19.850Z,39.25
2018-01-13T11:34:53.258Z,37.70
2018-01-13T11:37:25.407Z,37.40
2018-01-13T11:40:00.945Z,34.67
2018-01-13T11:42:32.582Z,40.05
2018-01-13T11:45:04.808Z,45.50
2018-01-13T11:47:36.645Z,37.47
2018-01-13T11:50:07.690Z,35.58
2018-01-13T11:55:40.048Z,37.33
2018-01-13T11:58:11.418Z,36.35
2018-01-13T12:00:42.582Z,35.30
2018-01-13T12:03:14.287Z,34.78
2018-01-13T12:05:46.036Z,35.40
2018-01-13T12:08:17.244Z,33.80
2018-01-13T12:10:49.101Z,39.40
2018-01-13T12:13:20.908Z,41.65
2018-01-13T12:15:54.551Z,41.65
2018-01-13T12:18:26.312Z,40.08
2018-01-13T12:21:03.586Z,42.47
2018-01-13T12:23:37.336Z,38.60
2018-01-13T12:26:12.577Z,39.85
2018-01-13T12:28:44.350Z,36.78
2018-01-13T12:31:15.831Z,41.50
2018-01-13T12:33:48.898Z,42.58
2018-01-13T12:36:22.386Z,38.45
2018-01-13T12:38:55.270Z,38.50
2018-01-13T12:41:27.747Z,43.35
2018-01-13T12:43:59.372Z,41.00
2018-01-13T12:46:31.435Z,40.83
2018-01-13T12:49:04.515Z,43.20
2018-01-13T12:51:36.383Z,42.65
2018-01-13T12:54:27.331Z,42.08
2018-01-13T12:57:08.310Z,44.38
2018-01-13T12:59:42.895Z,46.97
2018-01-13T13:02:21.278Z,46.20
2018-01-13T13:05:13.216Z,45.33
2018-01-13T13:07:45.763Z,44.72
2018-01-13T13:10:19.463Z,47.40
2018-01-13T13:12:51.561Z,44.45
2018-01-13T13:15:25.758Z,44.60
2018-01-13T13:17:58.145Z,43.45
2018-01-13T13:20:33.496Z,43.83
2018-01-13T13:23:06.051Z,41.03
2018-01-13T13:25:37.524Z,40.40
2018-01-13T13:28:09.430Z,40.70
2018-01-13T13:31:18.581Z,38.00
2018-01-13T13:39:49.720Z,37.85
2018-01-13T13:42:43.984Z,36.90
2018-01-13T13:45:16.172Z,38.00
2018-01-13T13:47:47.879Z,36.55
2018-01-13T13:50:21.977Z,35.90
2018-01-13T13:52:53.529Z,37.58
2018-01-13T13:55:25.201Z,32.95
2018-01-13T13:57:57.708Z,34.08
2018-01-13T14:00:31.463Z,34.55
2018-01-13T14:03:03.012Z,31.77
2018-01-13T14:05:36.179Z,32.85
2018-01-13T14:08:09.691Z,32.08
2018-01-13T14:10:42.126Z,31.58
2018-01-13T14:13:15.363Z,31.30
2018-01-13T14:15:47.633Z,30.40
2018-01-13T14:18:19.924Z,30.70
2018-01-13T14:20:52.477Z,30.00
2018-01-13T14:23:25.626Z,29.73
2018-01-13T14:25:57.177Z,30.35
2018-01-13T14:28:52.028Z,29.12
2018-01-13T14:31:24.535Z,29.98
2018-01-13T14:33:56.979Z,25.77
2018-01-13T14:39:08.003Z,34.00
2018-01-13T14:41:40.972Z,29.27
2018-01-13T14:44:13.916Z,27.50
2018-01-13T14:46:45.899Z,25.80
2018-01-13T14:49:19.569Z,27.48
2018-01-13T14:51:52.869Z,29.48
2018-01-13T14:54:24.606Z,29.35
2018-01-13T14:56:56.252Z,26.37
2018-01-13T14:59:27.753Z,25.55
2018-01-13T15:01:59.156Z,25.02
2018-01-13T15:04:31.263Z,23.52
2018-01-13T15:07:03.332Z,24.85
2018-01-13T15:09:36.026Z,24.50
2018-01-13T15:12:07.980Z,23.75
2018-01-13T15:14:39.948Z,24.37
2018-01-13T15:17:11.828Z,23.23
2018-01-13T15:19:43.550Z,22.50
2018-01-13T15:22:14.872Z,23.75
2018-01-13T15:24:46.277Z,25.08
2018-01-13T15:27:20.643Z,25.08
2018-01-13T15:29:51.788Z,24.40
2018-01-13T15:32:24.948Z,26.30
2018-01-13T15:34:56.649Z,24.73
2018-01-13T15:37:27.735Z,24.48
2018-01-13T15:39:59.069Z,26.08
2018-01-13T15:42:31.228Z,24.37
2018-01-13T15:45:03.437Z,25.02
2018-01-13T15:47:37.753Z,26.75
2018-01-13T15:50:12.155Z,24.00
2018-01-13T15:52:44.826Z,25.27
2018-01-13T15:55:17.191Z,24.15
2018-01-13T15:57:50.274Z,24.05
2018-01-13T16:00:21.904Z,24.25
2018-01-13T16:02:58.293Z,25.37
2018-01-13T16:05:30.280Z,24.52
2018-01-13T16:08:05.753Z,23.65
2018-01-13T16:13:25.498Z,24.00
2018-01-13T16:15:59.885Z,23.73
2018-01-13T16:18:43.371Z,23.52
2018-01-13T16:21:22.237Z,23.45
2018-01-13T16:24:03.746Z,26.50
2018-01-13T16:26:35.429Z,23.08
2018-01-13T16:29:07.338Z,23.20
2018-01-13T16:31:39.152Z,25.02
2018-01-13T16:34:10.874Z,23.62
2018-01-13T16:36:42.564Z,24.50
2018-01-13T16:39:33.487Z,22.55
2018-01-13T16:42:06.133Z,25.15
2018-01-13T16:44:37.930Z,23.52
2018-01-13T16:47:09.981Z,22.87
2018-01-13T16:49:41.397Z,22.20
2018-01-13T16:52:12.638Z,23.17
2018-01-13T16:54:44.179Z,23.20
2018-01-13T16:57:26.513Z,23.02
2018-01-13T17:52:01.943Z,24.17
2018-01-13T17:54:34.006Z,25.58
2018-01-13T17:57:06.596Z,27.02
2018-01-13T17:59:38.215Z,27.20
2018-01-13T18:02:10.370Z,25.50
2018-01-13T18:04:42.467Z,28.38
2018-01-13T18:07:13.648Z,28.85
2018-01-13T18:09:44.979Z,28.35
2018-01-13T18:12:16.827Z,25.95
2018-01-13T18:17:27.911Z,27.40
2018-01-13T18:20:00.222Z,26.20
2018-01-13T18:22:31.684Z,29.30
2018-01-13T18:25:04.870Z,28.20
2018-01-13T18:27:36.100Z,28.23
2018-01-13T18:30:08.013Z,29.10
2018-01-13T18:32:39.914Z,26.90
2018-01-13T18:35:12.088Z,29.77
2018-01-13T18:37:46.478Z,27.15
2018-01-13T18:40:23.237Z,27.08
2018-01-13T18:42:55.711Z,26.58
2018-01-13T18:45:27.164Z,26.77
2018-01-13T18:47:59.051Z,27.27
2018-01-13T18:50:31.335Z,27.23
2018-01-13T18:53:07.252Z,26.10
2018-01-13T18:55:39.766Z,28.85
2018-01-13T18:58:14.802Z,28.00
2018-01-13T19:00:47.644Z,26.65
2018-01-13T19:03:19.021Z,26.70
2018-01-13T19:05:52.815Z,28.55
2018-01-13T19:08:25.701Z,28.58
2018-01-13T19:10:57.124Z,28.67
2018-01-13T19:13:28.918Z,27.08
2018-01-13T19:16:01.897Z,29.15
2018-01-13T19:18:40.146Z,28.70
2018-01-13T19:21:11.587Z,32.15
2018-01-13T19:23:43.769Z,29.17
2018-01-13T19:26:17.832Z,29.90
2018-01-13T19:28:50.006Z,28.85
2018-01-13T19:31:23.090Z,30.65
2018-01-13T19:33:57.939Z,29.80
2018-01-13T19:36:30.030Z,27.98
2018-01-13T19:39:02.698Z,27.33
2018-01-13T19:41:36.471Z,27.67
2018-01-13T19:44:10.955Z,29.08
2018-01-13T19:46:55.912Z,27.60
2018-01-13T19:49:30.667Z,40.70
2018-01-13T19:52:03.199Z,28.92
2018-01-13T19:54:35.826Z,34.70
2018-01-13T19:57:08.831Z,31.95
2018-01-13T19:59:41.256Z,35.15
2018-01-13T20:02:13.780Z,28.40
2018-01-13T20:04:47.262Z,26.33
2018-01-13T20:07:19.145Z,25.45
2018-01-13T20:09:51.372Z,24.65
2018-01-13T20:12:22.673Z,23.30
2018-01-13T20:14:57.530Z,23.80
2018-01-13T20:17:29.395Z,24.98
2018-01-13T20:20:01.821Z,23.98
2018-01-13T20:22:34.941Z,22.58
2018-01-13T20:25:09.109Z,22.52
2018-01-13T20:27:43.878Z,23.10
2018-01-13T20:30:15.388Z,19.90
2018-01-13T20:32:46.644Z,20.15
2018-01-13T20:35:19.421Z,18.80
2018-01-13T20:37:50.660Z,19.35
2018-01-13T20:40:22.271Z,18.58
2018-01-13T20:42:56.657Z,17.58
2018-01-13T20:45:29.275Z,18.70
2018-01-13T20:48:02.150Z,17.23
2018-01-13T20:50:33.826Z,16.50
2018-01-13T20:53:08.109Z,15.43
2018-01-13T20:55:39.984Z,15.30
2018-01-13T20:58:12.970Z,14.45
2018-01-13T21:00:44.805Z,14.23
2018-01-13T21:03:17.071Z,13.10
2018-01-13T21:05:54.513Z,14.45
2018-01-13T21:08:40.510Z,14.95
2018-01-13T21:13:59.894Z,16.12
2018-01-13T21:16:32.480Z,15.18
2018-01-13T21:19:04.349Z,15.40
2018-01-13T21:21:36.103Z,14.68
2018-01-13T21:24:07.794Z,15.40
2018-01-13T21:26:39.979Z,15.02
2018-01-13T21:29:15.402Z,13.85
2018-01-13T21:31:48.172Z,14.32
2018-01-13T21:34:20.459Z,14.30
2018-01-13T21:36:53.157Z,14.30
2018-01-13T21:39:25.381Z,14.10
2018-01-13T21:42:05.242Z,13.73
2018-01-13T21:44:37.123Z,13.43
2018-01-13T21:47:10.034Z,13.07
2018-01-13T21:49:42.253Z,12.13
2018-01-13T21:52:13.787Z,14.68
2018-01-13T21:54:45.898Z,13.25
2018-01-13T21:57:17.727Z,14.45
2018-01-13T21:59:50.558Z,13.57
2018-01-13T22:02:22.761Z,13.52
2018-01-13T22:04:55.895Z,12.98
2018-01-13T22:07:29.327Z,13.57
2018-01-13T22:10:01.438Z,13.35
2018-01-13T22:12:33.081Z,14.30
2018-01-13T22:15:05.304Z,13.55
2018-01-13T22:17:37.128Z,13.50
2018-01-13T22:20:09.504Z,13.40
2018-01-13T22:22:47.266Z,13.62
2018-01-13T22:25:19.915Z,12.50
2018-01-13T22:27:51.441Z,12.50
2018-01-13T22:30:24.773Z,13.10
2018-01-13T22:33:02.418Z,12.60
2018-01-13T22:35:39.066Z,12.63
2018-01-13T22:38:10.680Z,11.88
2018-01-13T22:40:42.519Z,12.30
2018-01-13T22:43:15.254Z,11.93
2018-01-13T22:45:48.073Z,11.48
2018-01-13T22:48:24.577Z,12.00
2018-01-13T22:50:56.672Z,11.43
2018-01-13T22:53:29.467Z,11.15
2018-01-13T22:56:03.093Z,11.45
2018-01-13T22:58:39.558Z,10.38
2018-01-13T23:01:14.149Z,11.45
2018-01-13T23:03:46.291Z,11.20
2018-01-13T23:06:17.962Z,12.88
2018-01-13T23:08:49.091Z,11.57
2018-01-13T23:11:22.947Z,10.95
2018-01-13T23:13:55.204Z,11.00
2018-01-13T23:16:27.357Z,11.00
2018-01-13T23:18:58.939Z,10.80
2018-01-13T23:21:30.410Z,11.20
2018-01-13T23:24:03.137Z,11.20
2018-01-13T23:26:37.613Z,11.32
2018-01-13T23:29:09.117Z,10.85
2018-01-13T23:31:40.148Z,11.50
2018-01-13T23:34:13.154Z,12.63
2018-01-13T23:36:51.873Z,11.27
2018-01-13T23:39:23.863Z,12.15
